createdAt,value
2023-04-24T00:05:23.224Z,11.00
2023-04-24T00:15:28.863Z,11.30
2023-04-24T00:25:34.668Z,11.70
2023-04-24T00:35:38.569Z,11.10
2023-04-24T00:45:42.262Z,11.20
2023-04-24T00:55:46.554Z,11.10
2023-04-24T01:05:52.237Z,10.70
2023-04-24T01:16:09.199Z,11.70
2023-04-24T01:26:14.700Z,12.80
2023-04-24T01:36:21.546Z,12.30
2023-04-24T01:46:27.612Z,11.30
2023-04-24T01:56:31.642Z,11.30
2023-04-24T02:06:36.963Z,10.30
2023-04-24T02:16:41.787Z,11.00
2023-04-24T02:26:46.001Z,11.30
2023-04-24T02:36:50.939Z,12.80
2023-04-24T02:46:57.777Z,12.30
2023-04-24T02:57:02.417Z,12.00
2023-04-24T03:07:09.927Z,12.00
2023-04-24T03:17:14.521Z,12.50
2023-04-24T03:27:22.962Z,15.10
2023-04-24T03:37:46.863Z,16.00
2023-04-24T03:48:10.719Z,21.80
2023-04-24T03:58:15.816Z,29.20
2023-04-24T04:08:24.422Z,20.10
2023-04-24T04:18:28.720Z,16.20
2023-04-24T04:28:33.708Z,14.00
2023-04-24T04:38:39.880Z,15.50
2023-04-24T04:48:55.768Z,13.20
2023-04-24T04:59:02.191Z,14.50
2023-04-24T05:09:08.643Z,15.50
2023-04-24T05:19:21.039Z,14.80
2023-04-24T05:29:32.176Z,14.20
2023-04-24T05:39:38.003Z,12.10
2023-04-24T05:49:41.820Z,14.50
2023-04-24T05:59:46.650Z,15.20
2023-04-24T06:09:56.416Z,12.10
2023-04-24T06:20:00.730Z,10.90
2023-04-24T06:30:05.111Z,9.20
2023-04-24T06:40:12.996Z,9.50
2023-04-24T06:50:16.670Z,10.70
2023-04-24T07:00:20.748Z,8.60
2023-04-24T07:10:25.817Z,27.20
2023-04-24T07:20:29.597Z,17.30
2023-04-24T07:30:37.228Z,7.70
2023-04-24T07:40:40.921Z,7.50
2023-04-24T07:50:45.821Z,7.80
2023-04-24T08:00:51.242Z,13.00
2023-04-24T08:10:56.880Z,9.30
2023-04-24T08:21:02.677Z,9.40
2023-04-24T08:31:09.037Z,7.50
2023-04-24T08:41:15.179Z,6.60
2023-04-24T08:51:21.660Z,8.20
2023-04-24T09:01:27.330Z,6.80
2023-04-24T09:11:36.089Z,8.10
2023-04-24T09:21:39.969Z,4.70
2023-04-24T09:31:50.151Z,5.50
2023-04-24T09:42:01.982Z,6.60
2023-04-24T09:52:09.966Z,5.00
2023-04-24T10:02:22.733Z,4.40
2023-04-24T10:12:26.632Z,5.40
2023-04-24T10:22:34.498Z,6.10
2023-04-24T10:32:38.786Z,5.60
2023-04-24T10:42:47.233Z,5.90
2023-04-24T10:52:52.590Z,7.10
2023-04-24T11:03:00.715Z,7.10
2023-04-24T11:13:04.874Z,6.60
2023-04-24T11:23:09.875Z,6.10
2023-04-24T11:33:22.553Z,7.30
2023-04-24T11:43:27.393Z,6.80
2023-04-24T11:53:31.976Z,8.40
2023-04-24T12:03:39.259Z,8.30
2023-04-24T12:13:43.267Z,9.20
2023-04-24T12:23:48.998Z,10.60
2023-04-24T12:33:52.695Z,9.90
2023-04-24T12:43:57.773Z,9.90
2023-04-24T12:54:01.383Z,9.50
2023-04-24T13:04:05.058Z,10.80
2023-04-24T13:14:08.802Z,9.90
2023-04-24T13:24:54.327Z,10.00
2023-04-24T13:34:59.171Z,9.20
2023-04-24T13:45:13.845Z,10.70
2023-04-24T13:55:47.057Z,9.40
2023-04-24T14:06:51.487Z,8.50
2023-04-24T14:16:55.400Z,9.00
2023-04-24T14:27:01.421Z,6.30
2023-04-24T14:37:05.054Z,4.70
2023-04-24T14:47:12.731Z,6.60
2023-04-24T14:57:16.735Z,6.30
2023-04-24T15:07:22.299Z,5.10
2023-04-24T15:17:30.320Z,6.50
2023-04-24T15:27:47.522Z,8.50
2023-04-24T15:37:51.130Z,8.90
2023-04-24T15:47:54.925Z,8.90
2023-04-24T15:57:58.624Z,9.20
2023-04-24T16:08:05.460Z,10.30
2023-04-24T16:18:12.848Z,13.10
2023-04-24T16:28:17.349Z,10.80
2023-04-24T16:38:21.333Z,12.10
2023-04-24T16:48:27.043Z,10.80
2023-04-24T16:58:31.637Z,19.10
2023-04-24T17:08:37.336Z,31.60
2023-04-24T17:18:43.002Z,36.40
2023-04-24T17:28:46.801Z,29.70
2023-04-24T17:38:53.080Z,31.80
2023-04-24T17:48:57.316Z,25.50
2023-04-24T17:59:01.134Z,17.70
2023-04-24T18:09:04.671Z,38.30
2023-04-24T18:19:13.485Z,57.00
2023-04-24T18:29:20.284Z,27.40
2023-04-24T18:40:26.356Z,16.50
2023-04-24T18:50:32.128Z,13.80
2023-04-24T19:00:39.562Z,16.10
2023-04-24T19:10:44.869Z,29.30
2023-04-24T19:20:56.886Z,44.30
2023-04-24T19:31:04.100Z,42.60
2023-04-24T19:41:07.779Z,22.90
2023-04-24T19:51:13.306Z,21.90
2023-04-24T20:01:17.033Z,24.60
2023-04-24T20:11:20.768Z,19.70
2023-04-24T20:21:44.661Z,19.00
2023-04-24T20:31:48.782Z,18.80
2023-04-24T20:41:52.901Z,19.40
2023-04-24T20:51:59.479Z,19.60
2023-04-24T21:02:45.639Z,17.80
2023-04-24T21:12:49.560Z,19.00
2023-04-24T21:22:53.305Z,19.70
2023-04-24T21:32:59.742Z,18.30
2023-04-24T21:43:03.925Z,17.40
2023-04-24T21:53:07.590Z,16.20
2023-04-24T22:03:34.057Z,17.90
2023-04-24T22:13:38.189Z,25.70
2023-04-24T22:23:41.832Z,26.20
2023-04-24T22:33:47.618Z,28.60
2023-04-24T22:43:52.155Z,21.40
2023-04-24T22:53:58.374Z,17.90
2023-04-24T23:04:02.083Z,19.70
2023-04-24T23:14:07.387Z,24.60
2023-04-24T23:24:12.798Z,19.00
2023-04-24T23:34:39.623Z,21.20
2023-04-24T23:44:43.204Z,21.50
2023-04-24T23:54:48.205Z,28.20
